sensor_id;sensor_type;location;lat;lon;timestamp;P1;durP1;ratioP1;P2;durP2;ratioP2
20619;SDS011;10469;42.720;23.252;2023-07-31T00:00:54;3.35;;;3.05;;
20619;SDS011;10469;42.720;23.252;2023-07-31T00:03:20;3.75;;;3.10;;
20619;SDS011;10469;42.720;23.252;2023-07-31T00:05:46;3.75;;;3.35;;
20619;SDS011;10469;42.720;23.252;2023-07-31T00:08:11;6.35;;;3.78;;
20619;SDS011;10469;42.720;23.252;2023-07-31T00:10:37;5.57;;;4.68;;
20619;SDS011;10469;42.720;23.252;2023-07-31T00:13:02;4.50;;;3.40;;
20619;SDS011;10469;42.720;23.252;2023-07-31T00:15:28;4.00;;;3.58;;
20619;SDS011;10469;42.720;23.252;2023-07-31T00:17:54;5.13;;;3.42;;
20619;SDS011;10469;42.720;23.252;2023-07-31T00:20:19;6.47;;;3.92;;
20619;SDS011;10469;42.720;23.252;2023-07-31T00:22:45;3.97;;;3.67;;
20619;SDS011;10469;42.720;23.252;2023-07-31T00:25:10;4.22;;;3.58;;
20619;SDS011;10469;42.720;23.252;2023-07-31T00:27:36;5.57;;;3.80;;
20619;SDS011;10469;42.720;23.252;2023-07-31T00:30:02;4.97;;;3.80;;
20619;SDS011;10469;42.720;23.252;2023-07-31T00:32:28;4.45;;;4.05;;
20619;SDS011;10469;42.720;23.252;2023-07-31T00:34:53;4.28;;;3.85;;
20619;SDS011;10469;42.720;23.252;2023-07-31T00:37:19;4.72;;;3.80;;
20619;SDS011;10469;42.720;23.252;2023-07-31T00:39:45;5.20;;;4.70;;
20619;SDS011;10469;42.720;23.252;2023-07-31T00:42:10;5.20;;;4.63;;
20619;SDS011;10469;42.720;23.252;2023-07-31T00:44:36;5.53;;;5.03;;
20619;SDS011;10469;42.720;23.252;2023-07-31T00:47:01;6.75;;;5.55;;
20619;SDS011;10469;42.720;23.252;2023-07-31T00:49:27;7.55;;;6.72;;
20619;SDS011;10469;42.720;23.252;2023-07-31T00:51:53;8.68;;;7.65;;
20619;SDS011;10469;42.720;23.252;2023-07-31T00:54:19;11.13;;;8.40;;
20619;SDS011;10469;42.720;23.252;2023-07-31T00:56:45;9.88;;;8.88;;
20619;SDS011;10469;42.720;23.252;2023-07-31T00:59:13;9.45;;;8.35;;
20619;SDS011;10469;42.720;23.252;2023-07-31T01:01:39;9.90;;;8.80;;
20619;SDS011;10469;42.720;23.252;2023-07-31T01:04:05;9.95;;;8.95;;
20619;SDS011;10469;42.720;23.252;2023-07-31T01:12:07;11.52;;;10.32;;
20619;SDS011;10469;42.720;23.252;2023-07-31T01:14:37;13.25;;;10.52;;
20619;SDS011;10469;42.720;23.252;2023-07-31T01:17:03;12.13;;;10.73;;
20619;SDS011;10469;42.720;23.252;2023-07-31T01:19:29;14.95;;;11.05;;
20619;SDS011;10469;42.720;23.252;2023-07-31T01:27:30;13.45;;;12.13;;
20619;SDS011;10469;42.720;23.252;2023-07-31T01:32:44;15.13;;;13.52;;
20619;SDS011;10469;42.720;23.252;2023-07-31T01:35:13;15.60;;;13.95;;
20619;SDS011;10469;42.720;23.252;2023-07-31T01:37:39;18.63;;;15.55;;
20619;SDS011;10469;42.720;23.252;2023-07-31T01:40:06;15.93;;;14.23;;
20619;SDS011;10469;42.720;23.252;2023-07-31T01:42:32;19.25;;;16.10;;
20619;SDS011;10469;42.720;23.252;2023-07-31T01:44:58;18.80;;;15.88;;
20619;SDS011;10469;42.720;23.252;2023-07-31T01:47:25;18.67;;;16.20;;
20619;SDS011;10469;42.720;23.252;2023-07-31T01:49:50;18.00;;;15.85;;
20619;SDS011;10469;42.720;23.252;2023-07-31T01:52:16;20.00;;;16.98;;
20619;SDS011;10469;42.720;23.252;2023-07-31T01:54:42;20.88;;;16.80;;
20619;SDS011;10469;42.720;23.252;2023-07-31T01:57:07;23.60;;;17.55;;
20619;SDS011;10469;42.720;23.252;2023-07-31T01:59:33;21.80;;;16.88;;
20619;SDS011;10469;42.720;23.252;2023-07-31T02:01:58;22.85;;;17.60;;
20619;SDS011;10469;42.720;23.252;2023-07-31T02:04:24;21.77;;;18.08;;
20619;SDS011;10469;42.720;23.252;2023-07-31T02:06:49;20.63;;;17.27;;
20619;SDS011;10469;42.720;23.252;2023-07-31T02:09:15;22.95;;;17.83;;
20619;SDS011;10469;42.720;23.252;2023-07-31T02:11:41;21.27;;;17.30;;
20619;SDS011;10469;42.720;23.252;2023-07-31T02:14:06;20.25;;;18.02;;
20619;SDS011;10469;42.720;23.252;2023-07-31T02:16:32;22.25;;;18.80;;
20619;SDS011;10469;42.720;23.252;2023-07-31T02:18:57;20.35;;;18.25;;
20619;SDS011;10469;42.720;23.252;2023-07-31T02:21:23;22.40;;;18.80;;
20619;SDS011;10469;42.720;23.252;2023-07-31T02:23:49;23.25;;;18.80;;
20619;SDS011;10469;42.720;23.252;2023-07-31T02:26:14;21.33;;;18.95;;
20619;SDS011;10469;42.720;23.252;2023-07-31T02:28:40;21.95;;;19.25;;
20619;SDS011;10469;42.720;23.252;2023-07-31T02:31:08;24.90;;;18.13;;
20619;SDS011;10469;42.720;23.252;2023-07-31T02:33:33;22.83;;;18.60;;
20619;SDS011;10469;42.720;23.252;2023-07-31T02:35:59;24.45;;;18.42;;
20619;SDS011;10469;42.720;23.252;2023-07-31T02:38:25;21.80;;;18.92;;
20619;SDS011;10469;42.720;23.252;2023-07-31T02:40:50;23.27;;;18.20;;
20619;SDS011;10469;42.720;23.252;2023-07-31T02:43:16;22.52;;;18.75;;
20619;SDS011;10469;42.720;23.252;2023-07-31T02:45:41;21.65;;;18.05;;
20619;SDS011;10469;42.720;23.252;2023-07-31T02:48:07;20.98;;;18.77;;
20619;SDS011;10469;42.720;23.252;2023-07-31T02:50:33;23.40;;;19.13;;
20619;SDS011;10469;42.720;23.252;2023-07-31T02:52:58;20.80;;;18.08;;
20619;SDS011;10469;42.720;23.252;2023-07-31T02:55:24;22.40;;;19.42;;
20619;SDS011;10469;42.720;23.252;2023-07-31T02:57:50;22.50;;;19.23;;
20619;SDS011;10469;42.720;23.252;2023-07-31T03:00:17;22.15;;;18.58;;
20619;SDS011;10469;42.720;23.252;2023-07-31T03:02:43;21.75;;;18.08;;
20619;SDS011;10469;42.720;23.252;2023-07-31T03:05:08;23.77;;;19.67;;
20619;SDS011;10469;42.720;23.252;2023-07-31T03:07:34;24.08;;;18.45;;
20619;SDS011;10469;42.720;23.252;2023-07-31T03:10:00;21.48;;;19.05;;
20619;SDS011;10469;42.720;23.252;2023-07-31T03:12:26;20.65;;;18.45;;
20619;SDS011;10469;42.720;23.252;2023-07-31T03:14:51;23.83;;;19.58;;
20619;SDS011;10469;42.720;23.252;2023-07-31T03:17:17;25.65;;;19.92;;
20619;SDS011;10469;42.720;23.252;2023-07-31T03:19:43;21.90;;;18.90;;
20619;SDS011;10469;42.720;23.252;2023-07-31T03:22:08;24.77;;;19.48;;
20619;SDS011;10469;42.720;23.252;2023-07-31T03:24:34;21.52;;;19.23;;
20619;SDS011;10469;42.720;23.252;2023-07-31T03:26:59;21.90;;;19.15;;
20619;SDS011;10469;42.720;23.252;2023-07-31T03:29:25;21.05;;;18.30;;
20619;SDS011;10469;42.720;23.252;2023-07-31T03:31:51;24.10;;;18.58;;
20619;SDS011;10469;42.720;23.252;2023-07-31T03:34:16;21.65;;;19.30;;
20619;SDS011;10469;42.720;23.252;2023-07-31T03:36:42;24.30;;;19.25;;
20619;SDS011;10469;42.720;23.252;2023-07-31T03:39:08;21.17;;;18.60;;
20619;SDS011;10469;42.720;23.252;2023-07-31T03:41:33;23.02;;;19.17;;
20619;SDS011;10469;42.720;23.252;2023-07-31T03:43:59;23.88;;;19.25;;
20619;SDS011;10469;42.720;23.252;2023-07-31T03:46:25;21.63;;;19.42;;
20619;SDS011;10469;42.720;23.252;2023-07-31T03:48:50;23.85;;;20.73;;
20619;SDS011;10469;42.720;23.252;2023-07-31T03:51:16;25.05;;;20.02;;
20619;SDS011;10469;42.720;23.252;2023-07-31T03:53:43;25.83;;;21.45;;
20619;SDS011;10469;42.720;23.252;2023-07-31T03:56:09;28.20;;;20.73;;
20619;SDS011;10469;42.720;23.252;2023-07-31T03:58:34;24.48;;;20.50;;
20619;SDS011;10469;42.720;23.252;2023-07-31T04:01:02;29.95;;;20.98;;
20619;SDS011;10469;42.720;23.252;2023-07-31T04:03:28;25.40;;;20.90;;
20619;SDS011;10469;42.720;23.252;2023-07-31T04:05:54;27.33;;;22.27;;
20619;SDS011;10469;42.720;23.252;2023-07-31T04:08:23;24.88;;;20.92;;
20619;SDS011;10469;42.720;23.252;2023-07-31T04:10:49;26.45;;;21.30;;
20619;SDS011;10469;42.720;23.252;2023-07-31T04:13:15;25.05;;;20.95;;
20619;SDS011;10469;42.720;23.252;2023-07-31T04:15:41;25.48;;;20.95;;
20619;SDS011;10469;42.720;23.252;2023-07-31T04:18:06;26.30;;;20.92;;
20619;SDS011;10469;42.720;23.252;2023-07-31T04:20:32;29.15;;;21.70;;
20619;SDS011;10469;42.720;23.252;2023-07-31T04:22:58;31.27;;;21.33;;
20619;SDS011;10469;42.720;23.252;2023-07-31T04:25:24;26.33;;;21.25;;
20619;SDS011;10469;42.720;23.252;2023-07-31T04:27:49;24.02;;;20.00;;
20619;SDS011;10469;42.720;23.252;2023-07-31T04:30:15;27.90;;;20.17;;
20619;SDS011;10469;42.720;23.252;2023-07-31T04:32:41;27.00;;;21.25;;
20619;SDS011;10469;42.720;23.252;2023-07-31T04:35:06;27.73;;;20.52;;
20619;SDS011;10469;42.720;23.252;2023-07-31T04:37:32;22.27;;;19.15;;
20619;SDS011;10469;42.720;23.252;2023-07-31T04:39:58;23.75;;;18.63;;
20619;SDS011;10469;42.720;23.252;2023-07-31T04:42:23;21.92;;;19.42;;
20619;SDS011;10469;42.720;23.252;2023-07-31T04:44:49;25.75;;;20.17;;
20619;SDS011;10469;42.720;23.252;2023-07-31T04:47:15;21.75;;;18.75;;
20619;SDS011;10469;42.720;23.252;2023-07-31T04:49:40;26.60;;;18.88;;
20619;SDS011;10469;42.720;23.252;2023-07-31T04:52:06;30.83;;;19.80;;
20619;SDS011;10469;42.720;23.252;2023-07-31T04:54:32;21.38;;;18.73;;
20619;SDS011;10469;42.720;23.252;2023-07-31T04:56:57;23.90;;;18.65;;
20619;SDS011;10469;42.720;23.252;2023-07-31T04:59:23;21.63;;;17.98;;
20619;SDS011;10469;42.720;23.252;2023-07-31T05:01:48;20.50;;;17.73;;
20619;SDS011;10469;42.720;23.252;2023-07-31T05:04:14;18.88;;;16.90;;
20619;SDS011;10469;42.720;23.252;2023-07-31T05:06:40;21.50;;;17.27;;
20619;SDS011;10469;42.720;23.252;2023-07-31T05:09:06;18.02;;;16.13;;
20619;SDS011;10469;42.720;23.252;2023-07-31T05:11:32;18.55;;;15.85;;
20619;SDS011;10469;42.720;23.252;2023-07-31T05:13:57;19.15;;;16.02;;
20619;SDS011;10469;42.720;23.252;2023-07-31T05:16:23;17.80;;;15.45;;
20619;SDS011;10469;42.720;23.252;2023-07-31T05:18:49;18.75;;;16.27;;
20619;SDS011;10469;42.720;23.252;2023-07-31T05:21:14;19.23;;;16.13;;
20619;SDS011;10469;42.720;23.252;2023-07-31T05:23:40;16.92;;;14.43;;
20619;SDS011;10469;42.720;23.252;2023-07-31T05:26:06;16.85;;;14.70;;
20619;SDS011;10469;42.720;23.252;2023-07-31T05:28:34;16.95;;;14.63;;
20619;SDS011;10469;42.720;23.252;2023-07-31T05:31:01;14.65;;;13.15;;
20619;SDS011;10469;42.720;23.252;2023-07-31T05:33:28;15.43;;;12.05;;
20619;SDS011;10469;42.720;23.252;2023-07-31T05:35:54;11.40;;;10.20;;
20619;SDS011;10469;42.720;23.252;2023-07-31T05:38:19;11.98;;;9.75;;
20619;SDS011;10469;42.720;23.252;2023-07-31T05:40:46;11.15;;;9.75;;
20619;SDS011;10469;42.720;23.252;2023-07-31T05:43:12;14.27;;;9.93;;
20619;SDS011;10469;42.720;23.252;2023-07-31T05:45:37;11.18;;;8.35;;
20619;SDS011;10469;42.720;23.252;2023-07-31T05:48:03;9.35;;;8.13;;
20619;SDS011;10469;42.720;23.252;2023-07-31T05:50:29;10.57;;;8.10;;
20619;SDS011;10469;42.720;23.252;2023-07-31T05:52:55;11.77;;;8.40;;
20619;SDS011;10469;42.720;23.252;2023-07-31T05:55:21;10.65;;;7.82;;
20619;SDS011;10469;42.720;23.252;2023-07-31T05:57:46;11.18;;;7.72;;
20619;SDS011;10469;42.720;23.252;2023-07-31T06:00:12;14.35;;;7.60;;
20619;SDS011;10469;42.720;23.252;2023-07-31T06:02:38;9.10;;;7.43;;
20619;SDS011;10469;42.720;23.252;2023-07-31T06:05:04;7.05;;;6.35;;
20619;SDS011;10469;42.720;23.252;2023-07-31T06:07:33;7.68;;;6.95;;
20619;SDS011;10469;42.720;23.252;2023-07-31T06:09:59;6.68;;;6.00;;
20619;SDS011;10469;42.720;23.252;2023-07-31T06:12:29;10.52;;;6.20;;
20619;SDS011;10469;42.720;23.252;2023-07-31T06:14:56;7.65;;;5.78;;
20619;SDS011;10469;42.720;23.252;2023-07-31T06:17:22;7.47;;;6.05;;
20619;SDS011;10469;42.720;23.252;2023-07-31T06:19:47;6.22;;;5.63;;
20619;SDS011;10469;42.720;23.252;2023-07-31T06:22:14;10.02;;;5.15;;
20619;SDS011;10469;42.720;23.252;2023-07-31T06:24:40;7.20;;;5.45;;
20619;SDS011;10469;42.720;23.252;2023-07-31T06:27:06;5.65;;;5.03;;
20619;SDS011;10469;42.720;23.252;2023-07-31T06:29:32;5.70;;;4.90;;
20619;SDS011;10469;42.720;23.252;2023-07-31T06:31:58;8.32;;;5.15;;
20619;SDS011;10469;42.720;23.252;2023-07-31T06:34:24;6.13;;;4.60;;
20619;SDS011;10469;42.720;23.252;2023-07-31T06:36:49;5.72;;;5.05;;
20619;SDS011;10469;42.720;23.252;2023-07-31T06:39:15;6.40;;;5.53;;
20619;SDS011;10469;42.720;23.252;2023-07-31T06:41:41;4.30;;;3.90;;
20619;SDS011;10469;42.720;23.252;2023-07-31T06:44:08;4.97;;;4.45;;
20619;SDS011;10469;42.720;23.252;2023-07-31T06:46:33;12.15;;;4.65;;
20619;SDS011;10469;42.720;23.252;2023-07-31T06:48:59;6.63;;;4.10;;
20619;SDS011;10469;42.720;23.252;2023-07-31T06:51:25;7.45;;;4.30;;
20619;SDS011;10469;42.720;23.252;2023-07-31T06:53:50;7.22;;;4.47;;
20619;SDS011;10469;42.720;23.252;2023-07-31T06:56:16;4.82;;;4.35;;
20619;SDS011;10469;42.720;23.252;2023-07-31T06:58:42;7.18;;;4.70;;
20619;SDS011;10469;42.720;23.252;2023-07-31T07:01:08;7.05;;;4.57;;
20619;SDS011;10469;42.720;23.252;2023-07-31T07:03:33;4.43;;;3.67;;
20619;SDS011;10469;42.720;23.252;2023-07-31T07:05:59;4.72;;;3.40;;
20619;SDS011;10469;42.720;23.252;2023-07-31T07:08:25;5.70;;;3.60;;
20619;SDS011;10469;42.720;23.252;2023-07-31T07:10:51;4.03;;;3.53;;
20619;SDS011;10469;42.720;23.252;2023-07-31T07:13:17;6.70;;;3.30;;
20619;SDS011;10469;42.720;23.252;2023-07-31T07:15:43;3.95;;;3.45;;
20619;SDS011;10469;42.720;23.252;2023-07-31T07:18:13;5.47;;;3.42;;
20619;SDS011;10469;42.720;23.252;2023-07-31T07:20:39;9.00;;;5.35;;
20619;SDS011;10469;42.720;23.252;2023-07-31T07:23:05;4.85;;;3.78;;
20619;SDS011;10469;42.720;23.252;2023-07-31T07:25:31;6.50;;;3.70;;
20619;SDS011;10469;42.720;23.252;2023-07-31T07:27:56;11.23;;;3.83;;
20619;SDS011;10469;42.720;23.252;2023-07-31T07:30:22;4.43;;;3.78;;
20619;SDS011;10469;42.720;23.252;2023-07-31T07:32:50;6.90;;;4.22;;
20619;SDS011;10469;42.720;23.252;2023-07-31T07:35:15;6.75;;;3.70;;
20619;SDS011;10469;42.720;23.252;2023-07-31T07:37:41;5.40;;;3.80;;
20619;SDS011;10469;42.720;23.252;2023-07-31T07:40:07;7.28;;;3.80;;
20619;SDS011;10469;42.720;23.252;2023-07-31T07:42:33;5.38;;;3.67;;
20619;SDS011;10469;42.720;23.252;2023-07-31T07:44:58;3.30;;;3.00;;
20619;SDS011;10469;42.720;23.252;2023-07-31T07:47:24;4.18;;;3.20;;
20619;SDS011;10469;42.720;23.252;2023-07-31T07:49:50;7.57;;;3.80;;
20619;SDS011;10469;42.720;23.252;2023-07-31T07:52:15;7.03;;;3.53;;
20619;SDS011;10469;42.720;23.252;2023-07-31T07:54:41;8.15;;;3.35;;
20619;SDS011;10469;42.720;23.252;2023-07-31T07:57:07;4.40;;;3.40;;
20619;SDS011;10469;42.720;23.252;2023-07-31T07:59:32;5.45;;;3.80;;
20619;SDS011;10469;42.720;23.252;2023-07-31T08:01:58;6.03;;;3.38;;
20619;SDS011;10469;42.720;23.252;2023-07-31T08:04:23;15.27;;;3.83;;
20619;SDS011;10469;42.720;23.252;2023-07-31T08:06:49;7.60;;;3.42;;
20619;SDS011;10469;42.720;23.252;2023-07-31T08:09:15;5.72;;;2.95;;
20619;SDS011;10469;42.720;23.252;2023-07-31T08:11:40;4.85;;;3.15;;
20619;SDS011;10469;42.720;23.252;2023-07-31T08:14:06;5.10;;;3.55;;
20619;SDS011;10469;42.720;23.252;2023-07-31T08:16:32;12.93;;;3.50;;
20619;SDS011;10469;42.720;23.252;2023-07-31T08:18:57;4.10;;;3.30;;
20619;SDS011;10469;42.720;23.252;2023-07-31T08:21:23;7.65;;;3.42;;
20619;SDS011;10469;42.720;23.252;2023-07-31T08:23:49;6.38;;;2.95;;
20619;SDS011;10469;42.720;23.252;2023-07-31T08:26:15;4.75;;;3.17;;
20619;SDS011;10469;42.720;23.252;2023-07-31T08:28:41;8.13;;;3.13;;
20619;SDS011;10469;42.720;23.252;2023-07-31T08:31:07;6.30;;;3.13;;
20619;SDS011;10469;42.720;23.252;2023-07-31T08:33:32;3.45;;;3.15;;
20619;SDS011;10469;42.720;23.252;2023-07-31T08:35:58;4.25;;;3.20;;
20619;SDS011;10469;42.720;23.252;2023-07-31T08:38:25;5.32;;;2.95;;
20619;SDS011;10469;42.720;23.252;2023-07-31T08:40:51;7.15;;;3.00;;
20619;SDS011;10469;42.720;23.252;2023-07-31T08:43:17;3.65;;;2.63;;
20619;SDS011;10469;42.720;23.252;2023-07-31T08:45:45;4.05;;;2.70;;
20619;SDS011;10469;42.720;23.252;2023-07-31T08:48:12;6.47;;;2.85;;
20619;SDS011;10469;42.720;23.252;2023-07-31T08:50:38;8.40;;;3.25;;
20619;SDS011;10469;42.720;23.252;2023-07-31T08:53:04;3.03;;;2.80;;
20619;SDS011;10469;42.720;23.252;2023-07-31T08:55:29;7.38;;;2.97;;
20619;SDS011;10469;42.720;23.252;2023-07-31T08:57:57;4.00;;;2.53;;
20619;SDS011;10469;42.720;23.252;2023-07-31T09:00:25;5.28;;;2.83;;
20619;SDS011;10469;42.720;23.252;2023-07-31T09:03:14;6.10;;;2.90;;
20619;SDS011;10469;42.720;23.252;2023-07-31T09:05:42;4.30;;;3.38;;
20619;SDS011;10469;42.720;23.252;2023-07-31T09:08:10;4.78;;;3.08;;
20619;SDS011;10469;42.720;23.252;2023-07-31T09:10:43;4.97;;;2.90;;
20619;SDS011;10469;42.720;23.252;2023-07-31T09:13:15;4.38;;;2.90;;
20619;SDS011;10469;42.720;23.252;2023-07-31T09:15:42;3.53;;;3.13;;
20619;SDS011;10469;42.720;23.252;2023-07-31T09:18:09;3.15;;;2.85;;
20619;SDS011;10469;42.720;23.252;2023-07-31T09:20:36;7.78;;;3.58;;
20619;SDS011;10469;42.720;23.252;2023-07-31T09:23:07;4.75;;;3.22;;
20619;SDS011;10469;42.720;23.252;2023-07-31T09:28:01;3.50;;;2.88;;
20619;SDS011;10469;42.720;23.252;2023-07-31T09:30:32;5.45;;;3.05;;
20619;SDS011;10469;42.720;23.252;2023-07-31T09:33:10;4.18;;;3.00;;
20619;SDS011;10469;42.720;23.252;2023-07-31T09:35:36;2.83;;;2.47;;
20619;SDS011;10469;42.720;23.252;2023-07-31T09:38:12;2.58;;;2.38;;
20619;SDS011;10469;42.720;23.252;2023-07-31T09:40:39;6.15;;;2.53;;
20619;SDS011;10469;42.720;23.252;2023-07-31T09:43:13;5.65;;;2.72;;
20619;SDS011;10469;42.720;23.252;2023-07-31T09:45:43;5.10;;;2.70;;
20619;SDS011;10469;42.720;23.252;2023-07-31T09:48:10;2.80;;;2.50;;
20619;SDS011;10469;42.720;23.252;2023-07-31T09:50:38;3.22;;;2.50;;
20619;SDS011;10469;42.720;23.252;2023-07-31T09:53:05;8.38;;;2.47;;
20619;SDS011;10469;42.720;23.252;2023-07-31T09:55:31;3.65;;;2.65;;
20619;SDS011;10469;42.720;23.252;2023-07-31T09:57:57;3.20;;;2.47;;
20619;SDS011;10469;42.720;23.252;2023-07-31T10:00:24;4.57;;;2.53;;
20619;SDS011;10469;42.720;23.252;2023-07-31T10:02:53;3.70;;;2.40;;
20619;SDS011;10469;42.720;23.252;2023-07-31T10:05:22;3.03;;;2.40;;
20619;SDS011;10469;42.720;23.252;2023-07-31T10:07:54;3.00;;;2.25;;
20619;SDS011;10469;42.720;23.252;2023-07-31T10:10:21;5.03;;;2.65;;
20619;SDS011;10469;42.720;23.252;2023-07-31T10:15:40;4.32;;;2.60;;
20619;SDS011;10469;42.720;23.252;2023-07-31T10:18:08;5.00;;;2.50;;
20619;SDS011;10469;42.720;23.252;2023-07-31T10:20:34;7.75;;;2.63;;
20619;SDS011;10469;42.720;23.252;2023-07-31T10:23:01;2.83;;;2.47;;
20619;SDS011;10469;42.720;23.252;2023-07-31T10:25:28;2.40;;;2.20;;
20619;SDS011;10469;42.720;23.252;2023-07-31T10:27:55;4.38;;;2.40;;
20619;SDS011;10469;42.720;23.252;2023-07-31T10:30:24;3.28;;;2.13;;
20619;SDS011;10469;42.720;23.252;2023-07-31T10:32:52;1.92;;;1.80;;
20619;SDS011;10469;42.720;23.252;2023-07-31T10:35:19;3.10;;;2.20;;
20619;SDS011;10469;42.720;23.252;2023-07-31T10:37:47;3.50;;;2.65;;
20619;SDS011;10469;42.720;23.252;2023-07-31T10:40:18;4.05;;;2.53;;
20619;SDS011;10469;42.720;23.252;2023-07-31T10:42:51;4.40;;;2.28;;
20619;SDS011;10469;42.720;23.252;2023-07-31T10:48:00;5.55;;;2.10;;
20619;SDS011;10469;42.720;23.252;2023-07-31T10:50:27;3.88;;;2.10;;
20619;SDS011;10469;42.720;23.252;2023-07-31T10:52:54;4.75;;;2.00;;
20619;SDS011;10469;42.720;23.252;2023-07-31T10:55:28;2.63;;;1.90;;
20619;SDS011;10469;42.720;23.252;2023-07-31T10:58:10;2.30;;;2.10;;
20619;SDS011;10469;42.720;23.252;2023-07-31T11:00:38;9.52;;;2.72;;
20619;SDS011;10469;42.720;23.252;2023-07-31T11:03:15;7.18;;;2.20;;
20619;SDS011;10469;42.720;23.252;2023-07-31T11:08:28;6.40;;;2.10;;
20619;SDS011;10469;42.720;23.252;2023-07-31T12:09:32;7.68;;;4.68;;
20619;SDS011;10469;42.720;23.252;2023-07-31T12:11:57;5.78;;;5.28;;
20619;SDS011;10469;42.720;23.252;2023-07-31T12:14:27;5.93;;;5.22;;
20619;SDS011;10469;42.720;23.252;2023-07-31T12:16:56;5.88;;;5.13;;
20619;SDS011;10469;42.720;23.252;2023-07-31T12:19:25;5.40;;;4.50;;
20619;SDS011;10469;42.720;23.252;2023-07-31T12:21:55;10.27;;;4.70;;
20619;SDS011;10469;42.720;23.252;2023-07-31T12:24:24;4.68;;;4.28;;
20619;SDS011;10469;42.720;23.252;2023-07-31T12:26:51;5.57;;;4.22;;
20619;SDS011;10469;42.720;23.252;2023-07-31T12:29:17;5.20;;;4.70;;
20619;SDS011;10469;42.720;23.252;2023-07-31T12:31:43;5.53;;;4.55;;
20619;SDS011;10469;42.720;23.252;2023-07-31T12:34:16;5.60;;;5.10;;
20619;SDS011;10469;42.720;23.252;2023-07-31T12:36:43;5.60;;;5.10;;
20619;SDS011;10469;42.720;23.252;2023-07-31T12:39:09;5.40;;;4.90;;
20619;SDS011;10469;42.720;23.252;2023-07-31T12:41:35;6.22;;;5.10;;
20619;SDS011;10469;42.720;23.252;2023-07-31T12:44:00;5.63;;;5.07;;
20619;SDS011;10469;42.720;23.252;2023-07-31T12:46:26;6.57;;;4.90;;
20619;SDS011;10469;42.720;23.252;2023-07-31T12:48:52;8.77;;;5.88;;
20619;SDS011;10469;42.720;23.252;2023-07-31T12:51:17;6.30;;;5.18;;
20619;SDS011;10469;42.720;23.252;2023-07-31T12:53:43;10.05;;;5.72;;
20619;SDS011;10469;42.720;23.252;2023-07-31T12:56:08;7.38;;;5.90;;
20619;SDS011;10469;42.720;23.252;2023-07-31T12:58:34;8.75;;;5.57;;
20619;SDS011;10469;42.720;23.252;2023-07-31T13:01:00;6.93;;;5.20;;
20619;SDS011;10469;42.720;23.252;2023-07-31T13:03:27;7.57;;;5.00;;
20619;SDS011;10469;42.720;23.252;2023-07-31T13:05:52;5.60;;;5.00;;
20619;SDS011;10469;42.720;23.252;2023-07-31T13:08:19;5.80;;;4.78;;
20619;SDS011;10469;42.720;23.252;2023-07-31T13:10:45;13.80;;;4.72;;
20619;SDS011;10469;42.720;23.252;2023-07-31T13:13:11;5.03;;;4.38;;
20619;SDS011;10469;42.720;23.252;2023-07-31T13:15:37;5.75;;;4.30;;
20619;SDS011;10469;42.720;23.252;2023-07-31T13:18:02;7.38;;;4.10;;
20619;SDS011;10469;42.720;23.252;2023-07-31T13:20:28;4.90;;;4.50;;
20619;SDS011;10469;42.720;23.252;2023-07-31T13:22:54;4.05;;;3.72;;
20619;SDS011;10469;42.720;23.252;2023-07-31T13:25:19;5.72;;;4.00;;
20619;SDS011;10469;42.720;23.252;2023-07-31T13:27:45;11.23;;;3.90;;
20619;SDS011;10469;42.720;23.252;2023-07-31T13:30:11;8.38;;;4.35;;
20619;SDS011;10469;42.720;23.252;2023-07-31T13:32:36;7.68;;;4.13;;
20619;SDS011;10469;42.720;23.252;2023-07-31T13:35:04;4.22;;;3.83;;
20619;SDS011;10469;42.720;23.252;2023-07-31T13:37:34;5.47;;;4.47;;
20619;SDS011;10469;42.720;23.252;2023-07-31T13:40:00;6.00;;;4.20;;
20619;SDS011;10469;42.720;23.252;2023-07-31T13:42:26;5.28;;;4.78;;
20619;SDS011;10469;42.720;23.252;2023-07-31T13:44:53;6.32;;;4.07;;
20619;SDS011;10469;42.720;23.252;2023-07-31T13:47:21;3.85;;;3.55;;
20619;SDS011;10469;42.720;23.252;2023-07-31T13:49:47;5.88;;;4.20;;
20619;SDS011;10469;42.720;23.252;2023-07-31T13:52:12;4.88;;;4.28;;
20619;SDS011;10469;42.720;23.252;2023-07-31T13:54:38;8.40;;;4.43;;
20619;SDS011;10469;42.720;23.252;2023-07-31T13:57:04;4.80;;;4.30;;
20619;SDS011;10469;42.720;23.252;2023-07-31T13:59:30;4.72;;;4.32;;
20619;SDS011;10469;42.720;23.252;2023-07-31T14:01:55;5.43;;;4.68;;
20619;SDS011;10469;42.720;23.252;2023-07-31T14:04:21;7.68;;;4.30;;
20619;SDS011;10469;42.720;23.252;2023-07-31T14:06:46;4.10;;;3.80;;
20619;SDS011;10469;42.720;23.252;2023-07-31T14:09:13;7.07;;;4.22;;
20619;SDS011;10469;42.720;23.252;2023-07-31T14:11:39;6.25;;;4.47;;
20619;SDS011;10469;42.720;23.252;2023-07-31T14:14:05;4.32;;;3.80;;
20619;SDS011;10469;42.720;23.252;2023-07-31T14:16:30;4.07;;;3.67;;
20619;SDS011;10469;42.720;23.252;2023-07-31T14:18:56;4.95;;;4.25;;
20619;SDS011;10469;42.720;23.252;2023-07-31T14:21:24;6.40;;;4.10;;
20619;SDS011;10469;42.720;23.252;2023-07-31T14:23:50;6.88;;;3.67;;
20619;SDS011;10469;42.720;23.252;2023-07-31T14:26:16;4.38;;;3.97;;
20619;SDS011;10469;42.720;23.252;2023-07-31T14:28:42;4.13;;;3.65;;
20619;SDS011;10469;42.720;23.252;2023-07-31T14:31:07;3.88;;;3.58;;
20619;SDS011;10469;42.720;23.252;2023-07-31T14:33:33;4.38;;;3.97;;
20619;SDS011;10469;42.720;23.252;2023-07-31T14:35:59;6.47;;;3.70;;
20619;SDS011;10469;42.720;23.252;2023-07-31T14:38:24;5.38;;;3.60;;
20619;SDS011;10469;42.720;23.252;2023-07-31T14:40:50;6.65;;;4.45;;
20619;SDS011;10469;42.720;23.252;2023-07-31T14:43:16;5.60;;;4.00;;
20619;SDS011;10469;42.720;23.252;2023-07-31T14:45:42;5.15;;;3.70;;
20619;SDS011;10469;42.720;23.252;2023-07-31T14:48:07;7.05;;;3.47;;
20619;SDS011;10469;42.720;23.252;2023-07-31T14:50:33;4.07;;;3.67;;
20619;SDS011;10469;42.720;23.252;2023-07-31T14:52:59;6.25;;;3.72;;
20619;SDS011;10469;42.720;23.252;2023-07-31T14:55:25;3.40;;;2.95;;
20619;SDS011;10469;42.720;23.252;2023-07-31T14:57:51;4.82;;;3.65;;
20619;SDS011;10469;42.720;23.252;2023-07-31T15:00:16;5.70;;;3.40;;
20619;SDS011;10469;42.720;23.252;2023-07-31T15:02:42;3.08;;;2.70;;
20619;SDS011;10469;42.720;23.252;2023-07-31T15:05:08;5.28;;;3.03;;
20619;SDS011;10469;42.720;23.252;2023-07-31T15:07:34;5.15;;;2.88;;
20619;SDS011;10469;42.720;23.252;2023-07-31T15:10:00;3.20;;;2.65;;
20619;SDS011;10469;42.720;23.252;2023-07-31T15:12:27;3.63;;;2.53;;
20619;SDS011;10469;42.720;23.252;2023-07-31T15:14:53;4.07;;;2.83;;
20619;SDS011;10469;42.720;23.252;2023-07-31T15:17:19;5.10;;;3.03;;
20619;SDS011;10469;42.720;23.252;2023-07-31T15:19:44;7.32;;;2.70;;
20619;SDS011;10469;42.720;23.252;2023-07-31T15:22:10;4.97;;;2.80;;
20619;SDS011;10469;42.720;23.252;2023-07-31T15:24:36;7.57;;;2.97;;
20619;SDS011;10469;42.720;23.252;2023-07-31T15:27:02;6.15;;;2.58;;
20619;SDS011;10469;42.720;23.252;2023-07-31T15:29:28;3.53;;;2.58;;
20619;SDS011;10469;42.720;23.252;2023-07-31T15:31:55;3.53;;;2.70;;
20619;SDS011;10469;42.720;23.252;2023-07-31T15:34:21;3.72;;;3.42;;
20619;SDS011;10469;42.720;23.252;2023-07-31T15:36:47;10.57;;;2.70;;
20619;SDS011;10469;42.720;23.252;2023-07-31T15:39:13;2.38;;;2.17;;
20619;SDS011;10469;42.720;23.252;2023-07-31T15:41:38;2.85;;;2.50;;
20619;SDS011;10469;42.720;23.252;2023-07-31T15:44:06;2.67;;;2.45;;